createdAt,value
2022-12-07T00:10:58.763Z,1020.03
2022-12-07T00:26:14.700Z,1019.95
2022-12-07T00:41:30.673Z,1019.89
2022-12-07T00:56:47.651Z,1020
2022-12-07T01:12:04.582Z,1020.03
2022-12-07T01:27:21.600Z,1020.06
2022-12-07T01:42:38.523Z,1019.98
2022-12-07T01:57:55.536Z,1019.87
2022-12-07T02:13:11.488Z,1019.84
2022-12-07T02:28:27.477Z,1019.81
2022-12-07T02:43:43.401Z,1019.76
2022-12-07T02:59:00.412Z,1019.84
2022-12-07T03:14:16.347Z,1019.7
2022-12-07T03:29:33.318Z,1019.64
2022-12-07T03:44:50.280Z,1019.7
2022-12-07T04:00:07.286Z,1019.53
2022-12-07T04:15:23.212Z,1019.39
2022-12-07T04:30:39.186Z,1019.39
2022-12-07T04:45:55.175Z,1019.42
2022-12-07T05:01:12.153Z,1019.31
2022-12-07T05:16:29.169Z,1019.11
2022-12-07T05:31:46.220Z,1018.95
2022-12-07T05:32:30.948Z,1018.95
2022-12-07T05:47:03.083Z,1018.81
2022-12-07T05:47:47.906Z,1018.81
2022-12-07T06:02:21.105Z,1018.98
2022-12-07T06:17:37.007Z,1019
2022-12-07T06:32:53.973Z,1019
2022-12-07T06:48:10.961Z,1019
2022-12-07T07:03:27.905Z,1019
2022-12-07T07:18:43.868Z,1018.95
2022-12-07T07:33:59.818Z,1019.11
2022-12-07T07:49:15.818Z,1019.17
2022-12-07T08:04:32.880Z,1019.09
2022-12-07T08:19:48.769Z,1019.17
2022-12-07T08:35:05.749Z,1019.3
2022-12-07T08:50:21.701Z,1019.39
2022-12-07T09:05:37.728Z,1019.47
2022-12-07T09:20:53.650Z,1019.58
2022-12-07T09:36:09.635Z,1019.61
2022-12-07T09:51:26.568Z,1019.61
2022-12-07T10:06:42.559Z,1019.49
2022-12-07T10:07:22.509Z,1019.49
2022-12-07T10:21:59.523Z,1019.11
2022-12-07T10:37:16.509Z,1019.03
2022-12-07T10:52:34.422Z,1018.95
2022-12-07T11:07:56.631Z,1018.76
2022-12-07T11:23:07.342Z,1018.59
2022-12-07T11:38:27.967Z,1018.43
2022-12-07T11:53:40.291Z,1018.35
2022-12-07T12:24:12.211Z,1018.21
2022-12-07T12:39:29.220Z,1018.24
2022-12-07T12:54:47.150Z,1018.19
2022-12-07T13:10:03.167Z,1018.08
2022-12-07T13:25:21.252Z,1017.79
2022-12-07T13:40:35.097Z,1017.74
2022-12-07T13:55:54.523Z,1017.63
2022-12-07T14:11:08.022Z,1017.71
2022-12-07T14:26:24.982Z,1017.68
2022-12-07T14:41:41.980Z,1017.66
2022-12-07T14:56:58.949Z,1017.71
2022-12-07T15:12:14.872Z,1017.55
2022-12-07T15:27:30.870Z,1017.49
2022-12-07T15:42:46.813Z,1017.36
2022-12-07T15:58:03.841Z,1017.3
2022-12-07T16:13:20.775Z,1017.22
2022-12-07T16:28:37.748Z,1017.11
2022-12-07T16:43:54.694Z,1017.14
2022-12-07T16:59:11.724Z,1017.22
2022-12-07T17:14:27.639Z,1017.22
2022-12-07T17:29:43.594Z,1017.11
2022-12-07T17:44:59.763Z,1016.95
2022-12-07T18:00:16.553Z,1016.92
2022-12-07T18:15:33.525Z,1016.81
2022-12-07T18:31:14.378Z,1016.9
2022-12-07T18:46:06.514Z,1016.84
2022-12-07T19:01:23.466Z,1016.81
2022-12-07T19:16:39.459Z,1016.87
2022-12-07T19:31:55.540Z,1016.76
2022-12-07T19:47:11.369Z,1016.71
2022-12-07T20:02:29.343Z,1016.65
2022-12-07T20:17:46.311Z,1016.65
2022-12-07T20:33:03.232Z,1016.52
2022-12-07T20:48:19.239Z,1016.57
2022-12-07T21:03:36.175Z,1016.55
2022-12-07T21:18:52.188Z,1016.29
2022-12-07T21:34:08.163Z,1016.13
2022-12-07T21:49:25.113Z,1016.15
2022-12-07T22:04:43.082Z,1016.07
2022-12-07T22:20:00.076Z,1016.09
2022-12-07T22:35:16.038Z,1016.17
2022-12-07T22:50:32.008Z,1016.2
2022-12-07T23:05:48.999Z,1016.03
2022-12-07T23:21:05.165Z,1016.06
2022-12-07T23:36:20.914Z,1015.97
2022-12-07T23:51:37.886Z,1015.84
